createdAt,value
2016-08-04T05:29:11.841Z,344
2016-08-04T05:30:11.783Z,352
2016-08-04T05:31:11.778Z,384
2016-08-04T05:32:11.776Z,360
2016-08-04T05:33:11.789Z,384
2016-08-04T05:34:11.785Z,380
2016-08-04T05:35:12.508Z,392
2016-08-04T05:36:13.006Z,420
2016-08-04T05:37:11.811Z,452
2016-08-04T05:38:12.826Z,440
2016-08-04T05:39:14.199Z,456
2016-08-04T05:40:11.825Z,468
2016-08-04T05:41:11.833Z,452
2016-08-04T05:42:11.826Z,456
2016-08-04T05:43:11.835Z,460
2016-08-04T05:44:11.842Z,456
2016-08-04T05:45:11.839Z,456
2016-08-04T05:46:11.848Z,452
2016-08-04T05:47:11.859Z,460
2016-08-04T05:48:11.861Z,456
2016-08-04T05:49:11.911Z,444
2016-08-04T05:50:12.330Z,448
2016-08-04T05:51:14.310Z,456
2016-08-04T05:52:11.881Z,476
2016-08-04T05:53:11.898Z,472
2016-08-04T05:54:11.892Z,476
2016-08-04T05:55:11.905Z,472
2016-08-04T05:56:12.192Z,476
2016-08-04T05:57:12.790Z,476
2016-08-04T05:58:12.087Z,468
2016-08-04T05:59:12.274Z,476
2016-08-04T06:00:13.467Z,436
2016-08-04T06:01:11.939Z,416
2016-08-04T06:02:11.996Z,440
2016-08-04T06:03:13.086Z,484
2016-08-04T06:04:11.955Z,476
2016-08-04T06:05:14.856Z,464
2016-08-04T06:07:11.983Z,476
2016-08-04T06:08:12.227Z,436
2016-08-04T06:09:12.057Z,404
2016-08-04T06:10:12.039Z,384
2016-08-04T06:11:12.006Z,348
2016-08-04T06:12:12.135Z,304
2016-08-04T06:13:12.022Z,288
2016-08-04T06:14:12.107Z,264
2016-08-04T06:15:12.297Z,256
2016-08-04T06:16:12.551Z,228
2016-08-04T06:17:12.052Z,212
2016-08-04T06:18:12.150Z,224
2016-08-04T06:19:12.166Z,204
2016-08-04T06:20:12.066Z,216
2016-08-04T06:21:12.337Z,220
2016-08-04T06:22:12.086Z,208
2016-08-04T06:23:12.239Z,160
2016-08-04T06:24:13.059Z,152
2016-08-04T06:25:12.100Z,148
2016-08-04T06:26:12.112Z,144
2016-08-04T06:27:12.114Z,124
2016-08-04T06:28:12.124Z,112
2016-08-04T06:29:12.134Z,108
2016-08-04T06:30:12.535Z,108
2016-08-04T06:31:12.143Z,104
2016-08-04T06:32:12.147Z,104
2016-08-04T06:33:12.162Z,100
2016-08-04T06:34:13.133Z,96
2016-08-04T06:35:12.626Z,96
2016-08-04T06:36:12.180Z,88
2016-08-04T06:37:12.447Z,92
2016-08-04T06:38:12.194Z,92
2016-08-04T06:39:12.193Z,92
2016-08-04T06:40:12.218Z,100
2016-08-04T06:41:12.269Z,100
2016-08-04T06:42:12.211Z,104
2016-08-04T06:43:12.358Z,104
2016-08-04T06:44:12.238Z,104
2016-08-04T06:45:13.199Z,104
2016-08-04T06:46:12.240Z,104
2016-08-04T06:47:12.248Z,108
2016-08-04T06:48:12.260Z,108
2016-08-04T06:49:12.525Z,112
2016-08-04T06:50:12.426Z,112
2016-08-04T06:51:12.282Z,116
2016-08-04T06:52:13.506Z,124
2016-08-04T06:53:13.333Z,136
2016-08-04T06:54:13.270Z,136
2016-08-04T06:55:12.311Z,136
2016-08-04T06:56:12.313Z,140
2016-08-04T06:57:12.377Z,128
2016-08-04T06:58:12.323Z,136
2016-08-04T06:59:12.344Z,140
2016-08-04T07:00:12.402Z,140
2016-08-04T07:01:12.349Z,148
2016-08-04T07:02:12.350Z,140
2016-08-04T07:03:12.478Z,148
2016-08-04T07:04:12.375Z,140
2016-08-04T07:05:12.373Z,152
2016-08-04T07:06:12.390Z,144
2016-08-04T07:07:12.601Z,136
2016-08-04T07:08:12.418Z,144
2016-08-04T07:09:12.639Z,140
2016-08-04T07:10:12.414Z,156
2016-08-04T07:11:12.501Z,180
2016-08-04T07:12:12.422Z,208
2016-08-04T07:13:13.393Z,240
2016-08-04T07:14:12.434Z,212
2016-08-04T07:15:12.438Z,204
2016-08-04T07:16:12.457Z,240
2016-08-04T07:17:12.455Z,244
2016-08-04T07:18:12.458Z,268
2016-08-04T07:19:12.526Z,276
2016-08-04T07:20:12.829Z,280
2016-08-04T07:21:12.483Z,272
2016-08-04T07:22:12.987Z,276
2016-08-04T07:23:12.669Z,284
2016-08-04T07:24:12.553Z,268
2016-08-04T07:25:12.942Z,272
2016-08-04T07:26:12.536Z,248
2016-08-04T07:27:12.635Z,248
2016-08-04T07:28:12.801Z,224
2016-08-04T07:29:13.265Z,220
2016-08-04T07:30:13.525Z,172
2016-08-04T07:31:13.313Z,164
2016-08-04T07:32:12.563Z,160
2016-08-04T07:33:14.897Z,160
2016-08-04T07:34:12.576Z,164
2016-08-04T07:35:12.588Z,156
2016-08-04T07:36:13.539Z,140
2016-08-04T07:37:12.592Z,140
2016-08-04T07:38:12.597Z,156
2016-08-04T07:39:12.607Z,152
2016-08-04T07:40:12.614Z,164
2016-08-04T07:41:12.891Z,148
2016-08-04T07:42:12.623Z,172
2016-08-04T07:43:12.632Z,160
2016-08-04T07:44:12.635Z,176
2016-08-04T07:45:12.645Z,188
2016-08-04T07:46:12.663Z,204
2016-08-04T07:47:12.656Z,220
2016-08-04T07:48:12.662Z,292
2016-08-04T07:49:12.691Z,308
2016-08-04T07:50:12.680Z,292
2016-08-04T07:51:12.688Z,304
2016-08-04T07:52:12.688Z,412
2016-08-04T07:53:12.849Z,500
2016-08-04T07:54:12.703Z,568
2016-08-04T07:55:12.716Z,616
2016-08-04T07:56:12.720Z,704
2016-08-04T07:57:12.721Z,436
2016-08-04T07:58:12.738Z,524
2016-08-04T07:59:12.740Z,580
2016-08-04T08:00:12.741Z,340
2016-08-04T08:01:12.756Z,340
2016-08-04T08:02:12.756Z,352
2016-08-04T08:03:13.729Z,644
2016-08-04T08:04:12.779Z,628
2016-08-04T08:05:12.776Z,480
2016-08-04T08:06:12.796Z,428
2016-08-04T08:07:12.787Z,396
2016-08-04T08:08:12.799Z,356
2016-08-04T08:09:13.528Z,312
2016-08-04T08:10:12.811Z,344
2016-08-04T08:11:12.827Z,388
2016-08-04T08:12:12.821Z,372
2016-08-04T08:13:12.835Z,344
2016-08-04T08:14:12.836Z,344
2016-08-04T08:15:12.845Z,336
2016-08-04T08:16:12.855Z,408
2016-08-04T08:17:12.865Z,332
2016-08-04T08:18:12.866Z,400
2016-08-04T08:19:12.873Z,348
2016-08-04T08:20:12.877Z,360
2016-08-04T08:21:12.886Z,320
2016-08-04T08:22:12.892Z,312
2016-08-04T08:23:12.898Z,328
2016-08-04T08:24:12.906Z,412
2016-08-04T08:25:12.931Z,384
2016-08-04T08:26:12.920Z,416
2016-08-04T08:27:12.924Z,428
2016-08-04T08:28:12.933Z,436
2016-08-04T08:29:13.045Z,580
2016-08-04T08:30:12.950Z,456
2016-08-04T08:31:12.954Z,548
2016-08-04T08:32:12.977Z,496
2016-08-04T08:33:12.974Z,756
2016-08-04T08:34:12.986Z,464
2016-08-04T08:35:12.978Z,428
2016-08-04T08:36:12.986Z,448
2016-08-04T08:37:13.143Z,400
2016-08-04T08:38:13.248Z,384
2016-08-04T08:39:13.004Z,396
2016-08-04T08:40:13.022Z,404
2016-08-04T08:41:13.021Z,404
2016-08-04T08:42:13.030Z,344
2016-08-04T08:43:13.041Z,232
2016-08-04T08:44:13.043Z,200
2016-08-04T08:45:13.047Z,204
2016-08-04T08:46:13.058Z,224
2016-08-04T08:47:13.062Z,236
2016-08-04T08:48:13.069Z,216
2016-08-04T08:49:13.089Z,204
2016-08-04T08:50:13.083Z,212
2016-08-04T08:51:13.090Z,244
2016-08-04T08:52:13.100Z,232
2016-08-04T08:53:13.107Z,236
2016-08-04T08:54:13.112Z,228
2016-08-04T08:55:13.118Z,228
2016-08-04T08:56:13.125Z,252
2016-08-04T08:57:13.132Z,284
2016-08-04T08:58:13.149Z,284
2016-08-04T08:59:13.144Z,300
2016-08-04T09:00:13.152Z,320
2016-08-04T09:01:13.157Z,280
2016-08-04T09:02:13.165Z,292
2016-08-04T09:03:13.180Z,304
2016-08-04T09:04:13.175Z,336
2016-08-04T09:05:13.187Z,588
2016-08-04T09:06:13.211Z,576
2016-08-04T09:07:13.197Z,572
2016-08-04T09:08:13.207Z,636
2016-08-04T09:09:13.225Z,632
2016-08-04T09:10:13.242Z,672
2016-08-04T09:11:13.221Z,628
2016-08-04T09:12:13.237Z,632
2016-08-04T09:13:13.243Z,612
2016-08-04T09:14:13.245Z,620
2016-08-04T09:15:13.280Z,580
2016-08-04T09:16:13.264Z,584
2016-08-04T09:17:13.278Z,560
2016-08-04T09:18:13.273Z,484
2016-08-04T09:19:13.272Z,572
2016-08-04T09:20:13.297Z,560
2016-08-04T09:21:13.301Z,420
2016-08-04T09:22:13.309Z,468
2016-08-04T09:23:13.305Z,388
2016-08-04T09:24:13.312Z,348
2016-08-04T09:25:13.323Z,392
2016-08-04T09:26:13.323Z,440
2016-08-04T09:27:13.342Z,328
2016-08-04T09:28:13.355Z,352
2016-08-04T09:29:13.403Z,288
2016-08-04T09:30:13.459Z,268
2016-08-04T09:31:13.359Z,236
2016-08-04T09:32:13.367Z,220
2016-08-04T09:33:13.374Z,224
2016-08-04T09:34:13.384Z,216
2016-08-04T09:35:13.393Z,248
2016-08-04T09:36:13.507Z,260
2016-08-04T09:37:13.562Z,244
2016-08-04T09:38:13.562Z,248
2016-08-04T09:39:13.594Z,252
2016-08-04T09:40:13.582Z,224
2016-08-04T09:41:13.602Z,220
2016-08-04T09:42:13.455Z,232
2016-08-04T09:43:13.455Z,268
2016-08-04T09:44:13.460Z,268
2016-08-04T09:45:13.460Z,372
2016-08-04T09:46:13.466Z,468
2016-08-04T09:47:14.499Z,372
2016-08-04T09:48:13.474Z,420
2016-08-04T09:49:13.477Z,344
2016-08-04T09:50:13.495Z,316
2016-08-04T09:51:13.493Z,308
2016-08-04T09:52:13.516Z,288
2016-08-04T09:53:13.515Z,272
2016-08-04T09:54:13.518Z,280
2016-08-04T09:55:13.523Z,284
2016-08-04T09:56:13.530Z,272
2016-08-04T09:57:13.533Z,244
2016-08-04T09:58:13.547Z,236
2016-08-04T09:59:14.512Z,248
2016-08-04T10:00:13.558Z,268
2016-08-04T10:01:13.559Z,276
2016-08-04T10:02:13.609Z,292
2016-08-04T10:03:13.573Z,324
2016-08-04T10:04:13.585Z,340
2016-08-04T10:05:13.593Z,308
2016-08-04T10:06:13.595Z,296
2016-08-04T10:07:14.323Z,292
2016-08-04T10:08:13.607Z,272
2016-08-04T10:09:13.616Z,288
2016-08-04T10:10:13.645Z,304
2016-08-04T10:11:13.640Z,308
2016-08-04T10:12:15.909Z,300
2016-08-04T10:13:13.640Z,300
2016-08-04T10:14:13.646Z,316
2016-08-04T10:15:13.675Z,336
2016-08-04T10:16:13.676Z,380
2016-08-04T10:17:13.674Z,488
2016-08-04T10:18:13.671Z,548
2016-08-04T10:19:13.683Z,528
2016-08-04T10:20:13.687Z,428
2016-08-04T10:21:13.700Z,392
2016-08-04T10:22:14.923Z,424
2016-08-04T10:23:13.714Z,396
2016-08-04T10:24:13.715Z,420
2016-08-04T10:25:14.694Z,412
2016-08-04T10:26:13.940Z,388
2016-08-04T10:27:13.754Z,320
2016-08-04T10:28:13.743Z,336
2016-08-04T10:29:13.799Z,344
2016-08-04T10:30:13.762Z,328
2016-08-04T10:31:13.765Z,308
2016-08-04T10:32:14.845Z,312
2016-08-04T10:33:14.757Z,292
2016-08-04T10:34:13.785Z,284
2016-08-04T10:35:13.788Z,296
2016-08-04T10:36:13.852Z,304
2016-08-04T10:38:13.812Z,284
2016-08-04T10:39:13.831Z,308
2016-08-04T10:40:13.823Z,308
2016-08-04T10:41:13.881Z,280
2016-08-04T10:42:13.905Z,296
2016-08-04T10:43:13.855Z,304
2016-08-04T10:44:14.039Z,292
2016-08-04T10:45:15.053Z,296
2016-08-04T10:46:14.455Z,304
2016-08-04T10:47:14.036Z,312
2016-08-04T10:48:14.713Z,320
2016-08-04T10:49:14.398Z,364
2016-08-04T10:50:14.400Z,328
2016-08-04T10:51:15.296Z,368
2016-08-04T10:53:14.526Z,396
2016-08-04T10:54:14.298Z,400
2016-08-04T10:55:14.185Z,404
2016-08-04T10:56:15.397Z,404
2016-08-04T10:57:13.965Z,412
2016-08-04T10:58:15.422Z,416
2016-08-04T10:59:14.307Z,432
2016-08-04T11:00:13.959Z,432
2016-08-04T11:01:13.963Z,448
2016-08-04T11:02:13.971Z,440
2016-08-04T11:03:13.982Z,436
2016-08-04T11:04:13.986Z,436
2016-08-04T11:05:13.985Z,436
2016-08-04T11:06:14.247Z,432
2016-08-04T11:07:14.006Z,436
2016-08-04T11:08:14.015Z,432
2016-08-04T11:09:14.015Z,424
2016-08-04T11:10:14.028Z,440
2016-08-04T11:11:14.030Z,452
2016-08-04T11:12:14.047Z,448
2016-08-04T11:13:14.042Z,432
2016-08-04T11:14:14.051Z,452
2016-08-04T11:15:14.061Z,456
2016-08-04T11:16:14.064Z,472
2016-08-04T11:17:14.073Z,476
2016-08-04T11:18:14.080Z,476
2016-08-04T11:19:14.082Z,444
2016-08-04T11:20:14.098Z,472
2016-08-04T11:21:14.442Z,444
2016-08-04T11:22:14.106Z,432
2016-08-04T11:23:14.112Z,432
2016-08-04T11:24:14.359Z,460
2016-08-04T11:25:14.122Z,436
2016-08-04T11:26:14.132Z,492
2016-08-04T11:27:14.137Z,488
2016-08-04T11:28:14.146Z,460
2016-08-04T11:29:14.204Z,488
2016-08-04T11:30:14.155Z,440
2016-08-04T11:31:14.172Z,452
2016-08-04T11:32:14.170Z,456
2016-08-04T11:33:14.182Z,468
2016-08-04T11:34:14.203Z,504
2016-08-04T11:35:14.189Z,472
2016-08-04T11:36:14.729Z,460
2016-08-04T11:37:14.219Z,464
2016-08-04T11:38:14.211Z,464
2016-08-04T11:39:14.222Z,460
2016-08-04T11:40:14.487Z,440
2016-08-04T11:41:14.232Z,420
2016-08-04T11:42:14.282Z,420
2016-08-04T11:43:14.245Z,428
2016-08-04T11:44:14.264Z,428
2016-08-04T11:45:14.297Z,412
2016-08-04T11:46:14.520Z,416
2016-08-04T11:47:14.292Z,424
2016-08-04T11:48:14.280Z,412
2016-08-04T11:49:14.290Z,404
2016-08-04T11:50:14.314Z,424
2016-08-04T11:51:14.306Z,404
2016-08-04T11:52:14.306Z,416
2016-08-04T11:53:14.312Z,408
2016-08-04T11:54:14.341Z,424
2016-08-04T11:55:14.326Z,396
2016-08-04T11:56:14.355Z,420
2016-08-04T11:57:15.324Z,432
2016-08-04T11:58:14.409Z,416
2016-08-04T11:59:14.387Z,420
2016-08-04T12:00:15.343Z,432
2016-08-04T12:01:14.367Z,452
2016-08-04T12:02:14.374Z,424
2016-08-04T12:03:14.384Z,416
2016-08-04T12:04:14.385Z,408
2016-08-04T12:05:14.398Z,392
2016-08-04T12:06:14.439Z,392
2016-08-04T12:07:14.404Z,380
2016-08-04T12:08:14.411Z,352
2016-08-04T12:09:14.450Z,356
2016-08-04T12:10:14.429Z,376
2016-08-04T12:11:14.431Z,344
2016-08-04T12:12:14.454Z,376
2016-08-04T12:13:14.451Z,372
2016-08-04T12:14:14.459Z,376
2016-08-04T12:15:14.456Z,372
2016-08-04T12:16:14.464Z,376
2016-08-04T12:17:14.478Z,388
2016-08-04T12:18:14.478Z,368
2016-08-04T12:19:14.490Z,372
2016-08-04T12:20:14.495Z,372
2016-08-04T12:21:14.499Z,368
2016-08-04T12:22:15.470Z,384
2016-08-04T12:23:14.518Z,388
2016-08-04T12:24:14.524Z,368
2016-08-04T12:25:14.532Z,360
2016-08-04T12:26:14.535Z,348
2016-08-04T12:27:14.574Z,312
2016-08-04T12:28:14.544Z,308
2016-08-04T12:29:14.888Z,284
2016-08-04T12:30:14.757Z,260
2016-08-04T12:31:14.984Z,264
2016-08-04T12:32:14.767Z,256
2016-08-04T12:33:14.580Z,236
2016-08-04T12:34:14.590Z,240
2016-08-04T12:35:14.605Z,244
2016-08-04T12:36:14.606Z,280
2016-08-04T12:37:14.603Z,308
2016-08-04T12:38:14.615Z,312
2016-08-04T12:39:14.628Z,324
2016-08-04T12:40:14.628Z,320
2016-08-04T12:41:14.633Z,316
2016-08-04T12:42:15.606Z,308
2016-08-04T12:43:14.648Z,300
2016-08-04T12:44:14.655Z,292
2016-08-04T12:45:14.654Z,288
2016-08-04T12:46:14.666Z,284
2016-08-04T12:47:14.674Z,272
2016-08-04T12:48:14.678Z,260
2016-08-04T12:49:14.685Z,240
2016-08-04T12:50:14.698Z,236
2016-08-04T12:51:14.705Z,236
2016-08-04T12:52:14.706Z,240
2016-08-04T12:53:14.733Z,240
2016-08-04T12:54:14.719Z,252
2016-08-04T12:55:14.728Z,252
2016-08-04T12:56:14.734Z,248
2016-08-04T12:57:14.741Z,240
2016-08-04T12:58:14.744Z,252
2016-08-04T12:59:14.749Z,244
2016-08-04T13:00:14.763Z,244
2016-08-04T13:01:14.762Z,252
2016-08-04T13:02:14.780Z,248
2016-08-04T13:03:14.780Z,248
2016-08-04T13:04:14.789Z,264
2016-08-04T13:05:14.794Z,256
2016-08-04T13:06:15.802Z,252
2016-08-04T13:07:14.806Z,256
2016-08-04T13:08:14.811Z,272
2016-08-04T13:09:14.816Z,276
2016-08-04T13:10:14.920Z,268
2016-08-04T13:11:14.834Z,268
2016-08-04T13:12:14.840Z,276
2016-08-04T13:13:14.845Z,288
2016-08-04T13:14:14.855Z,296
2016-08-04T13:15:14.874Z,288
2016-08-04T13:16:14.863Z,288
2016-08-04T13:17:14.878Z,292
2016-08-04T13:18:14.878Z,284
2016-08-04T13:19:14.898Z,272
2016-08-04T13:20:14.892Z,260
2016-08-04T13:21:14.901Z,264
2016-08-04T13:22:14.907Z,260
2016-08-04T13:23:14.926Z,244
2016-08-04T13:24:14.932Z,228
2016-08-04T13:25:15.646Z,220
2016-08-04T13:26:14.933Z,192
2016-08-04T13:27:14.946Z,176
2016-08-04T13:28:14.942Z,172
2016-08-04T13:29:14.952Z,156
2016-08-04T13:30:15.015Z,148
2016-08-04T13:31:14.965Z,136
2016-08-04T13:32:14.977Z,120
2016-08-04T13:33:14.987Z,104
2016-08-04T13:34:14.985Z,96
2016-08-04T13:35:14.990Z,92
2016-08-04T13:36:17.433Z,96
2016-08-04T13:37:15.017Z,92
2016-08-04T13:38:15.728Z,92
2016-08-04T13:39:15.023Z,100
2016-08-04T13:40:15.023Z,116
2016-08-04T13:41:15.331Z,132
2016-08-04T13:42:15.050Z,152
2016-08-04T13:43:15.055Z,172
2016-08-04T13:44:15.058Z,196
2016-08-04T13:45:15.064Z,212
2016-08-04T13:46:15.069Z,228
2016-08-04T13:47:15.068Z,244
2016-08-04T13:48:15.076Z,264
2016-08-04T13:49:15.083Z,296
2016-08-04T13:50:15.090Z,328
2016-08-04T13:51:15.099Z,360
2016-08-04T13:52:15.108Z,372
2016-08-04T13:53:15.108Z,360
2016-08-04T13:54:15.117Z,356
2016-08-04T13:55:15.122Z,360
2016-08-04T13:56:15.138Z,348
2016-08-04T13:57:15.137Z,324
2016-08-04T13:58:15.142Z,308
2016-08-04T13:59:20.508Z,316
2016-08-04T14:00:15.167Z,320
2016-08-04T14:01:15.161Z,312
2016-08-04T14:02:15.169Z,320
2016-08-04T14:03:15.178Z,320
2016-08-04T14:04:15.188Z,320
2016-08-04T14:05:15.190Z,316
2016-08-04T14:06:15.199Z,316
2016-08-04T14:07:15.206Z,316
2016-08-04T14:08:15.211Z,320
2016-08-04T14:09:15.213Z,324
2016-08-04T14:10:15.223Z,320
2016-08-04T14:11:15.240Z,316
2016-08-04T14:12:15.242Z,312
2016-08-04T14:13:15.251Z,312
2016-08-04T14:14:15.261Z,300
2016-08-04T14:15:15.257Z,292
2016-08-04T14:16:15.254Z,288
2016-08-04T14:17:15.271Z,288
2016-08-04T14:18:15.279Z,292
2016-08-04T14:19:15.278Z,284
2016-08-04T14:20:15.287Z,280
2016-08-04T14:21:15.293Z,276
2016-08-04T14:22:15.304Z,276
2016-08-04T14:23:15.306Z,268
2016-08-04T14:24:15.317Z,264
2016-08-04T14:25:15.318Z,264
2016-08-04T14:26:15.348Z,260
2016-08-04T14:27:15.343Z,260
2016-08-04T14:28:21.604Z,256
2016-08-04T14:29:15.344Z,252
2016-08-04T14:30:16.428Z,252
2016-08-04T14:31:15.358Z,260
2016-08-04T14:32:15.364Z,260
2016-08-04T14:33:15.371Z,256
2016-08-04T14:34:15.383Z,256
2016-08-04T14:35:15.385Z,260
2016-08-04T14:36:15.390Z,256
2016-08-04T14:37:15.393Z,248
2016-08-04T14:38:15.407Z,244
2016-08-04T14:39:15.409Z,240
2016-08-04T14:40:15.431Z,236
2016-08-04T14:41:15.428Z,236
2016-08-04T14:42:15.433Z,228
2016-08-04T14:43:15.437Z,224
2016-08-04T14:44:15.444Z,220
2016-08-04T14:45:15.449Z,208
2016-08-04T14:46:15.463Z,204
2016-08-04T14:47:15.459Z,196
2016-08-04T14:48:15.467Z,196
2016-08-04T14:49:15.488Z,188
2016-08-04T14:50:15.480Z,188
2016-08-04T14:51:15.494Z,188
2016-08-04T14:52:15.495Z,184
2016-08-04T14:53:16.714Z,184
2016-08-04T14:54:15.513Z,180
2016-08-04T14:55:15.519Z,180
2016-08-04T14:56:15.521Z,180
2016-08-04T14:57:15.525Z,180
2016-08-04T14:58:15.532Z,180
2016-08-04T14:59:15.542Z,180
2016-08-04T15:00:15.546Z,180
2016-08-04T15:01:15.554Z,176
2016-08-04T15:02:15.564Z,176
2016-08-04T15:03:15.563Z,176
2016-08-04T15:04:15.573Z,172
2016-08-04T15:05:15.585Z,172
2016-08-04T15:06:15.587Z,172
2016-08-04T15:07:15.593Z,164
2016-08-04T15:09:15.608Z,164
2016-08-04T15:10:15.615Z,168
2016-08-04T15:11:15.622Z,168
2016-08-04T15:12:15.627Z,168
2016-08-04T15:13:15.643Z,172
2016-08-04T15:14:15.657Z,176
2016-08-04T15:15:15.644Z,180
2016-08-04T15:16:15.651Z,180
2016-08-04T15:17:15.659Z,184
2016-08-04T15:18:15.668Z,188
2016-08-04T15:19:15.669Z,196
2016-08-04T15:20:15.677Z,200
2016-08-04T15:21:15.685Z,204
2016-08-04T15:22:16.410Z,208
2016-08-04T15:24:15.710Z,212
2016-08-04T15:25:15.709Z,216
2016-08-04T15:26:15.719Z,220
2016-08-04T15:27:15.721Z,232
2016-08-04T15:28:16.451Z,288
2016-08-04T15:29:15.741Z,260
2016-08-04T15:30:15.741Z,284
2016-08-04T15:31:15.748Z,292
2016-08-04T15:32:15.765Z,312
2016-08-04T15:33:15.768Z,332
2016-08-04T15:34:15.773Z,324
2016-08-04T15:35:15.774Z,372
2016-08-04T15:36:15.783Z,376
2016-08-04T15:37:15.790Z,308
2016-08-04T15:39:15.801Z,276
2016-08-04T15:40:15.810Z,292
2016-08-04T15:41:15.823Z,268
2016-08-04T15:42:15.818Z,268
2016-08-04T15:43:15.829Z,272
2016-08-04T15:44:15.837Z,256
2016-08-04T15:45:15.842Z,260
2016-08-04T15:46:15.845Z,268
2016-08-04T15:47:15.853Z,264
2016-08-04T15:48:15.859Z,268
2016-08-04T15:49:15.866Z,328
2016-08-04T15:50:15.869Z,304
2016-08-04T15:51:15.876Z,296
2016-08-04T15:52:15.885Z,300
2016-08-04T15:53:15.897Z,288
2016-08-04T15:54:15.897Z,260
2016-08-04T15:55:15.907Z,244
2016-08-04T15:56:15.912Z,240
2016-08-04T15:57:15.916Z,236
2016-08-04T15:58:15.924Z,236
2016-08-04T15:59:15.929Z,232
2016-08-04T16:00:15.939Z,236
2016-08-04T16:01:15.949Z,240
2016-08-04T16:02:15.952Z,240
2016-08-04T16:03:15.959Z,244
2016-08-04T16:04:16.941Z,236
2016-08-04T16:05:15.971Z,232
2016-08-04T16:06:15.984Z,228
2016-08-04T16:07:16.602Z,220
2016-08-04T16:08:18.657Z,216
2016-08-04T16:09:16.573Z,212
2016-08-04T16:10:16.277Z,204
2016-08-04T16:11:19.474Z,204
2016-08-04T16:12:16.596Z,208
2016-08-04T16:13:16.710Z,212
2016-08-04T16:14:18.513Z,212
2016-08-04T16:15:16.628Z,212
2016-08-04T16:16:19.115Z,204
2016-08-04T16:17:16.458Z,208
2016-08-04T16:18:17.840Z,204
2016-08-04T16:19:17.515Z,200
2016-08-04T16:20:17.304Z,196
2016-08-04T16:21:16.090Z,192
2016-08-04T16:22:16.142Z,192
2016-08-04T16:23:16.452Z,188
2016-08-04T16:24:17.591Z,184
2016-08-04T16:25:17.047Z,184
2016-08-04T16:26:16.664Z,180
2016-08-04T16:27:17.361Z,176
2016-08-04T16:28:16.480Z,176
2016-08-04T16:29:16.516Z,176
2016-08-04T16:30:16.188Z,172
2016-08-04T16:31:17.336Z,172
2016-08-04T16:32:17.002Z,172
2016-08-04T16:33:16.160Z,168
2016-08-04T16:34:16.593Z,172
2016-08-04T16:35:16.611Z,172
2016-08-04T16:36:18.369Z,172
2016-08-04T16:37:17.787Z,172
2016-08-04T16:38:16.459Z,172
2016-08-04T16:39:17.296Z,172
2016-08-04T16:40:16.427Z,172
2016-08-04T16:41:17.351Z,172
2016-08-04T16:42:16.905Z,168
2016-08-04T16:43:16.829Z,168
2016-08-04T16:44:16.822Z,172
2016-08-04T16:45:18.409Z,176
2016-08-04T16:46:16.687Z,184
2016-08-04T16:47:16.519Z,200
2016-08-04T16:48:17.141Z,200
2016-08-04T16:49:16.549Z,196
2016-08-04T16:50:17.849Z,196
2016-08-04T16:51:17.225Z,200
2016-08-04T16:52:16.932Z,196
2016-08-04T16:53:16.757Z,204
2016-08-04T16:54:17.186Z,200
2016-08-04T16:55:16.815Z,208
2016-08-04T16:56:16.752Z,208
2016-08-04T16:57:17.206Z,216
2016-08-04T16:58:17.211Z,216
2016-08-04T16:59:17.505Z,212
2016-08-04T17:00:17.236Z,208
2016-08-04T17:01:16.937Z,212
2016-08-04T17:02:18.264Z,204
2016-08-04T17:03:17.249Z,204
2016-08-04T17:04:18.071Z,200
2016-08-04T17:05:17.220Z,200
2016-08-04T17:06:17.523Z,204
2016-08-04T17:07:17.270Z,196
2016-08-04T17:08:17.275Z,188
2016-08-04T17:09:17.279Z,180
2016-08-04T17:10:17.524Z,164
2016-08-04T17:11:17.318Z,160
2016-08-04T17:12:17.129Z,164
2016-08-04T17:13:17.376Z,168
2016-08-04T17:14:17.153Z,164
2016-08-04T17:15:17.397Z,156
2016-08-04T17:16:17.085Z,156
2016-08-04T17:17:17.560Z,152
2016-08-04T17:18:17.480Z,144
2016-08-04T17:19:17.310Z,144
2016-08-04T17:20:17.169Z,144
2016-08-04T17:21:18.847Z,140
2016-08-04T17:22:17.207Z,132
2016-08-04T17:23:18.269Z,132
2016-08-04T17:24:17.349Z,132
2016-08-04T17:25:18.496Z,128
2016-08-04T17:26:16.810Z,128
2016-08-04T17:27:17.262Z,124
2016-08-04T17:28:17.419Z,120
2016-08-04T17:29:17.577Z,124
2016-08-04T17:30:17.803Z,120
2016-08-04T17:31:17.284Z,124
2016-08-04T17:32:17.764Z,116
2016-08-04T17:33:16.912Z,116
2016-08-04T17:34:16.734Z,116
2016-08-04T17:35:17.447Z,116
2016-08-04T17:36:17.446Z,116
2016-08-04T17:37:17.569Z,116
2016-08-04T17:38:17.630Z,124
2016-08-04T17:39:17.709Z,120
2016-08-04T17:40:17.532Z,112
2016-08-04T17:41:17.465Z,112
2016-08-04T17:42:17.716Z,108
2016-08-04T17:43:17.593Z,104
2016-08-04T17:44:17.548Z,104
2016-08-04T17:45:17.375Z,100
2016-08-04T17:46:17.336Z,96
2016-08-04T17:47:17.347Z,96
2016-08-04T17:48:17.841Z,96
2016-08-04T17:49:17.654Z,96
2016-08-04T17:50:16.772Z,92
2016-08-04T17:51:17.545Z,92
2016-08-04T17:52:17.641Z,88
2016-08-04T17:53:17.583Z,84
2016-08-04T17:54:17.650Z,80
2016-08-04T17:55:17.579Z,80
2016-08-04T17:56:17.673Z,76
2016-08-04T17:57:17.415Z,76
2016-08-04T17:58:17.674Z,72
2016-08-04T17:59:17.659Z,72
2016-08-04T18:00:17.429Z,72
2016-08-04T18:01:17.447Z,68
2016-08-04T18:02:17.323Z,72
2016-08-04T18:03:16.977Z,68
2016-08-04T18:04:17.443Z,68
2016-08-04T18:05:17.704Z,64
2016-08-04T18:06:17.191Z,64
2016-08-04T18:07:17.669Z,60
2016-08-04T18:08:16.888Z,56
2016-08-04T18:09:17.392Z,56
2016-08-04T18:10:17.414Z,56
2016-08-04T18:11:17.037Z,52
2016-08-04T18:12:17.280Z,52
2016-08-04T18:13:17.664Z,48
2016-08-04T18:14:16.802Z,48
2016-08-04T18:15:16.814Z,44
2016-08-04T18:16:16.819Z,44
2016-08-04T18:17:16.824Z,44
2016-08-04T18:18:16.832Z,44
2016-08-04T18:19:17.195Z,44
2016-08-04T18:20:16.851Z,40
2016-08-04T18:21:16.856Z,40
2016-08-04T18:22:16.855Z,44
2016-08-04T18:23:16.863Z,40
2016-08-04T18:24:16.871Z,40
2016-08-04T18:25:16.873Z,36
2016-08-04T18:26:16.884Z,36
2016-08-04T18:27:16.888Z,36
2016-08-04T18:28:16.895Z,36
2016-08-04T18:29:16.913Z,32
2016-08-04T18:30:16.904Z,32
2016-08-04T18:31:16.923Z,32
2016-08-04T18:32:16.922Z,32
2016-08-04T18:33:16.940Z,32
2016-08-04T18:34:16.946Z,32
2016-08-04T18:35:16.945Z,24
2016-08-04T18:36:16.951Z,24
2016-08-04T18:37:16.956Z,24
2016-08-04T18:38:16.977Z,20
2016-08-04T18:39:16.966Z,24
2016-08-04T18:40:16.979Z,20
2016-08-04T18:41:16.992Z,20
2016-08-04T18:42:16.990Z,24
2016-08-04T18:43:16.997Z,20
2016-08-04T18:44:16.996Z,20
2016-08-04T18:45:17.033Z,16
2016-08-04T18:46:17.011Z,20
2016-08-04T18:47:17.012Z,16
2016-08-04T18:48:17.022Z,16
2016-08-04T18:49:17.030Z,16
2016-08-04T18:50:17.038Z,16
2016-08-04T18:51:17.042Z,12
2016-08-04T18:52:17.052Z,16
2016-08-04T18:53:17.051Z,12
2016-08-04T18:54:17.062Z,12
2016-08-04T18:55:17.085Z,12
2016-08-04T18:56:17.069Z,8
2016-08-04T18:57:19.284Z,12
2016-08-04T18:58:17.088Z,8
2016-08-04T18:59:17.093Z,12
2016-08-04T19:00:17.098Z,8
2016-08-04T19:01:17.111Z,8
2016-08-04T19:02:17.113Z,12
2016-08-04T19:03:17.123Z,8
2016-08-04T19:04:17.122Z,8
2016-08-04T19:05:17.147Z,8
2016-08-04T19:06:17.140Z,8
2016-08-04T19:07:17.141Z,8
2016-08-04T19:08:17.149Z,8
2016-08-04T19:09:17.156Z,8
2016-08-04T19:10:17.174Z,8
2016-08-04T19:11:17.168Z,8
2016-08-04T19:12:17.172Z,4
2016-08-04T19:13:17.180Z,4
2016-08-04T19:14:17.187Z,4
2016-08-04T19:15:17.192Z,4
2016-08-04T19:16:17.201Z,4
2016-08-04T19:17:22.973Z,4
2016-08-04T19:18:22.373Z,0
2016-08-04T19:19:17.218Z,4
2016-08-04T19:20:17.227Z,4
2016-08-04T19:21:17.239Z,0
2016-08-04T19:22:17.237Z,4
2016-08-04T19:23:17.959Z,4
2016-08-04T19:24:17.982Z,0
2016-08-04T19:25:17.257Z,0